sensor_id;sensor_type;location;lat;lon;timestamp;P1;durP1;ratioP1;P2;durP2;ratioP2
58384;SDS011;44185;47.844;8.966;2023-06-22T00:00:57;13.73;;;5.90;;
58384;SDS011;44185;47.844;8.966;2023-06-22T00:03:23;15.75;;;6.63;;
58384;SDS011;44185;47.844;8.966;2023-06-22T00:05:51;13.98;;;6.22;;
58384;SDS011;44185;47.844;8.966;2023-06-22T00:08:17;15.38;;;5.90;;
58384;SDS011;44185;47.844;8.966;2023-06-22T00:10:43;16.67;;;6.32;;
58384;SDS011;44185;47.844;8.966;2023-06-22T00:13:09;15.23;;;6.30;;
58384;SDS011;44185;47.844;8.966;2023-06-22T00:15:35;11.10;;;4.38;;
58384;SDS011;44185;47.844;8.966;2023-06-22T00:18:02;16.33;;;6.57;;
58384;SDS011;44185;47.844;8.966;2023-06-22T00:20:27;13.20;;;6.10;;
58384;SDS011;44185;47.844;8.966;2023-06-22T00:22:55;14.25;;;6.38;;
58384;SDS011;44185;47.844;8.966;2023-06-22T00:25:20;19.55;;;6.38;;
58384;SDS011;44185;47.844;8.966;2023-06-22T00:27:46;14.77;;;5.82;;
58384;SDS011;44185;47.844;8.966;2023-06-22T00:30:12;14.98;;;6.13;;
58384;SDS011;44185;47.844;8.966;2023-06-22T00:32:38;13.43;;;6.00;;
58384;SDS011;44185;47.844;8.966;2023-06-22T00:35:05;14.88;;;6.07;;
58384;SDS011;44185;47.844;8.966;2023-06-22T00:37:30;15.15;;;6.15;;
58384;SDS011;44185;47.844;8.966;2023-06-22T00:39:57;15.93;;;6.30;;
58384;SDS011;44185;47.844;8.966;2023-06-22T00:42:23;15.25;;;5.70;;
58384;SDS011;44185;47.844;8.966;2023-06-22T00:44:48;14.07;;;5.90;;
58384;SDS011;44185;47.844;8.966;2023-06-22T00:47:14;13.60;;;5.75;;
58384;SDS011;44185;47.844;8.966;2023-06-22T00:49:42;14.40;;;5.70;;
58384;SDS011;44185;47.844;8.966;2023-06-22T00:52:08;14.55;;;5.97;;
58384;SDS011;44185;47.844;8.966;2023-06-22T00:54:34;16.42;;;5.80;;
58384;SDS011;44185;47.844;8.966;2023-06-22T00:57:01;14.25;;;6.00;;
58384;SDS011;44185;47.844;8.966;2023-06-22T00:59:27;16.08;;;5.68;;
58384;SDS011;44185;47.844;8.966;2023-06-22T01:01:53;12.82;;;5.40;;
58384;SDS011;44185;47.844;8.966;2023-06-22T01:04:19;11.65;;;5.22;;
58384;SDS011;44185;47.844;8.966;2023-06-22T01:06:45;14.75;;;5.32;;
58384;SDS011;44185;47.844;8.966;2023-06-22T01:09:21;14.45;;;5.78;;
58384;SDS011;44185;47.844;8.966;2023-06-22T01:11:53;13.38;;;5.45;;
58384;SDS011;44185;47.844;8.966;2023-06-22T01:14:25;17.08;;;5.90;;
58384;SDS011;44185;47.844;8.966;2023-06-22T01:16:56;13.50;;;5.47;;
58384;SDS011;44185;47.844;8.966;2023-06-22T01:19:29;13.50;;;5.57;;
58384;SDS011;44185;47.844;8.966;2023-06-22T01:22:03;16.15;;;6.00;;
58384;SDS011;44185;47.844;8.966;2023-06-22T01:24:32;16.40;;;5.40;;
58384;SDS011;44185;47.844;8.966;2023-06-22T01:27:05;14.77;;;5.40;;
58384;SDS011;44185;47.844;8.966;2023-06-22T01:29:41;13.35;;;4.95;;
58384;SDS011;44185;47.844;8.966;2023-06-22T01:32:07;12.90;;;6.00;;
58384;SDS011;44185;47.844;8.966;2023-06-22T01:34:35;12.32;;;5.03;;
58384;SDS011;44185;47.844;8.966;2023-06-22T01:37:03;16.92;;;5.88;;
58384;SDS011;44185;47.844;8.966;2023-06-22T01:39:29;12.80;;;5.35;;
58384;SDS011;44185;47.844;8.966;2023-06-22T01:41:55;11.88;;;4.93;;
58384;SDS011;44185;47.844;8.966;2023-06-22T01:44:21;12.73;;;4.97;;
58384;SDS011;44185;47.844;8.966;2023-06-22T01:46:51;12.75;;;4.82;;
58384;SDS011;44185;47.844;8.966;2023-06-22T01:49:17;11.23;;;5.00;;
58384;SDS011;44185;47.844;8.966;2023-06-22T01:51:43;12.68;;;4.90;;
58384;SDS011;44185;47.844;8.966;2023-06-22T01:54:08;12.63;;;5.10;;
58384;SDS011;44185;47.844;8.966;2023-06-22T01:56:34;10.27;;;4.43;;
58384;SDS011;44185;47.844;8.966;2023-06-22T01:59:02;14.80;;;5.20;;
58384;SDS011;44185;47.844;8.966;2023-06-22T02:01:35;13.07;;;5.10;;
58384;SDS011;44185;47.844;8.966;2023-06-22T02:04:11;14.27;;;5.25;;
58384;SDS011;44185;47.844;8.966;2023-06-22T02:06:39;10.25;;;5.00;;
58384;SDS011;44185;47.844;8.966;2023-06-22T02:09:08;14.98;;;5.22;;
58384;SDS011;44185;47.844;8.966;2023-06-22T02:11:37;14.98;;;5.40;;
58384;SDS011;44185;47.844;8.966;2023-06-22T02:14:06;13.00;;;4.80;;
58384;SDS011;44185;47.844;8.966;2023-06-22T02:16:33;12.25;;;4.80;;
58384;SDS011;44185;47.844;8.966;2023-06-22T02:18:59;10.40;;;4.90;;
58384;SDS011;44185;47.844;8.966;2023-06-22T02:21:27;11.40;;;4.72;;
58384;SDS011;44185;47.844;8.966;2023-06-22T02:23:53;12.68;;;4.80;;
58384;SDS011;44185;47.844;8.966;2023-06-22T02:26:18;10.57;;;4.68;;
58384;SDS011;44185;47.844;8.966;2023-06-22T02:28:44;11.48;;;4.68;;
58384;SDS011;44185;47.844;8.966;2023-06-22T02:31:10;13.30;;;5.15;;
58384;SDS011;44185;47.844;8.966;2023-06-22T02:33:35;13.80;;;5.10;;
58384;SDS011;44185;47.844;8.966;2023-06-22T02:36:00;11.43;;;4.67;;
58384;SDS011;44185;47.844;8.966;2023-06-22T02:38:27;10.18;;;5.07;;
58384;SDS011;44185;47.844;8.966;2023-06-22T02:40:53;14.23;;;5.55;;
58384;SDS011;44185;47.844;8.966;2023-06-22T02:43:18;11.95;;;5.03;;
58384;SDS011;44185;47.844;8.966;2023-06-22T02:45:43;13.88;;;5.55;;
58384;SDS011;44185;47.844;8.966;2023-06-22T02:48:09;12.48;;;5.43;;
58384;SDS011;44185;47.844;8.966;2023-06-22T02:50:35;14.35;;;5.95;;
58384;SDS011;44185;47.844;8.966;2023-06-22T02:53:00;14.90;;;5.88;;
58384;SDS011;44185;47.844;8.966;2023-06-22T02:55:27;19.65;;;8.50;;
58384;SDS011;44185;47.844;8.966;2023-06-22T02:57:52;21.23;;;9.13;;
58384;SDS011;44185;47.844;8.966;2023-06-22T03:00:19;20.80;;;9.82;;
58384;SDS011;44185;47.844;8.966;2023-06-22T03:02:44;22.52;;;10.05;;
58384;SDS011;44185;47.844;8.966;2023-06-22T03:05:11;22.50;;;10.05;;
58384;SDS011;44185;47.844;8.966;2023-06-22T03:07:36;20.13;;;9.13;;
58384;SDS011;44185;47.844;8.966;2023-06-22T03:10:02;18.35;;;9.73;;
58384;SDS011;44185;47.844;8.966;2023-06-22T03:12:29;20.48;;;10.32;;
58384;SDS011;44185;47.844;8.966;2023-06-22T03:14:54;21.67;;;9.43;;
58384;SDS011;44185;47.844;8.966;2023-06-22T03:17:19;20.50;;;9.80;;
58384;SDS011;44185;47.844;8.966;2023-06-22T03:19:45;21.08;;;9.75;;
58384;SDS011;44185;47.844;8.966;2023-06-22T03:22:10;19.45;;;10.85;;
58384;SDS011;44185;47.844;8.966;2023-06-22T03:24:36;22.38;;;10.75;;
58384;SDS011;44185;47.844;8.966;2023-06-22T03:27:01;25.52;;;14.52;;
58384;SDS011;44185;47.844;8.966;2023-06-22T03:29:28;24.38;;;11.45;;
58384;SDS011;44185;47.844;8.966;2023-06-22T03:31:53;24.70;;;12.05;;
58384;SDS011;44185;47.844;8.966;2023-06-22T03:34:19;22.45;;;10.93;;
58384;SDS011;44185;47.844;8.966;2023-06-22T03:36:44;25.30;;;12.20;;
58384;SDS011;44185;47.844;8.966;2023-06-22T03:39:10;24.88;;;12.05;;
58384;SDS011;44185;47.844;8.966;2023-06-22T03:41:35;19.10;;;10.25;;
58384;SDS011;44185;47.844;8.966;2023-06-22T03:44:00;20.23;;;10.50;;
58384;SDS011;44185;47.844;8.966;2023-06-22T03:46:27;22.98;;;10.93;;
58384;SDS011;44185;47.844;8.966;2023-06-22T03:48:53;20.55;;;10.90;;
58384;SDS011;44185;47.844;8.966;2023-06-22T03:51:18;22.58;;;10.95;;
58384;SDS011;44185;47.844;8.966;2023-06-22T03:53:43;22.15;;;10.13;;
58384;SDS011;44185;47.844;8.966;2023-06-22T03:56:09;21.13;;;10.05;;
58384;SDS011;44185;47.844;8.966;2023-06-22T03:58:34;22.67;;;9.88;;
58384;SDS011;44185;47.844;8.966;2023-06-22T04:01:00;21.60;;;10.73;;
58384;SDS011;44185;47.844;8.966;2023-06-22T04:03:27;17.90;;;9.20;;
58384;SDS011;44185;47.844;8.966;2023-06-22T04:05:52;17.33;;;7.35;;
58384;SDS011;44185;47.844;8.966;2023-06-22T04:08:18;13.15;;;5.70;;
58384;SDS011;44185;47.844;8.966;2023-06-22T04:10:43;16.45;;;6.32;;
58384;SDS011;44185;47.844;8.966;2023-06-22T04:13:09;15.32;;;5.97;;
58384;SDS011;44185;47.844;8.966;2023-06-22T04:15:34;16.13;;;6.15;;
58384;SDS011;44185;47.844;8.966;2023-06-22T04:18:00;16.30;;;7.88;;
58384;SDS011;44185;47.844;8.966;2023-06-22T04:20:26;19.92;;;7.85;;
58384;SDS011;44185;47.844;8.966;2023-06-22T04:22:52;16.25;;;6.72;;
58384;SDS011;44185;47.844;8.966;2023-06-22T04:25:18;12.85;;;6.88;;
58384;SDS011;44185;47.844;8.966;2023-06-22T04:27:43;13.82;;;6.93;;
58384;SDS011;44185;47.844;8.966;2023-06-22T04:30:09;15.82;;;6.55;;
58384;SDS011;44185;47.844;8.966;2023-06-22T04:32:35;16.85;;;6.80;;
58384;SDS011;44185;47.844;8.966;2023-06-22T04:35:00;17.05;;;5.90;;
58384;SDS011;44185;47.844;8.966;2023-06-22T04:37:27;13.48;;;5.40;;
58384;SDS011;44185;47.844;8.966;2023-06-22T04:39:52;13.23;;;5.90;;
58384;SDS011;44185;47.844;8.966;2023-06-22T04:42:18;11.98;;;5.30;;
58384;SDS011;44185;47.844;8.966;2023-06-22T04:44:43;15.35;;;5.38;;
58384;SDS011;44185;47.844;8.966;2023-06-22T04:47:09;12.10;;;5.00;;
58384;SDS011;44185;47.844;8.966;2023-06-22T04:49:35;11.80;;;5.35;;
58384;SDS011;44185;47.844;8.966;2023-06-22T04:52:01;13.23;;;5.35;;
58384;SDS011;44185;47.844;8.966;2023-06-22T04:54:30;14.18;;;5.88;;
58384;SDS011;44185;47.844;8.966;2023-06-22T04:56:56;12.05;;;5.20;;
58384;SDS011;44185;47.844;8.966;2023-06-22T04:59:21;11.60;;;5.00;;
58384;SDS011;44185;47.844;8.966;2023-06-22T05:01:47;14.20;;;5.18;;
58384;SDS011;44185;47.844;8.966;2023-06-22T05:04:12;13.07;;;5.22;;
58384;SDS011;44185;47.844;8.966;2023-06-22T05:06:37;12.05;;;4.97;;
58384;SDS011;44185;47.844;8.966;2023-06-22T05:09:03;12.23;;;5.25;;
58384;SDS011;44185;47.844;8.966;2023-06-22T05:11:30;13.07;;;5.68;;
58384;SDS011;44185;47.844;8.966;2023-06-22T05:13:55;14.27;;;5.38;;
58384;SDS011;44185;47.844;8.966;2023-06-22T05:16:21;14.45;;;5.18;;
58384;SDS011;44185;47.844;8.966;2023-06-22T05:18:47;13.75;;;5.70;;
58384;SDS011;44185;47.844;8.966;2023-06-22T05:21:13;11.13;;;5.20;;
58384;SDS011;44185;47.844;8.966;2023-06-22T05:23:38;13.40;;;5.53;;
58384;SDS011;44185;47.844;8.966;2023-06-22T05:26:03;12.38;;;4.95;;
58384;SDS011;44185;47.844;8.966;2023-06-22T05:28:30;12.00;;;5.35;;
58384;SDS011;44185;47.844;8.966;2023-06-22T05:30:56;13.80;;;5.00;;
58384;SDS011;44185;47.844;8.966;2023-06-22T05:33:21;14.05;;;5.35;;
58384;SDS011;44185;47.844;8.966;2023-06-22T05:35:47;14.15;;;4.72;;
58384;SDS011;44185;47.844;8.966;2023-06-22T05:38:12;13.23;;;4.88;;
58384;SDS011;44185;47.844;8.966;2023-06-22T05:40:37;12.10;;;5.25;;
58384;SDS011;44185;47.844;8.966;2023-06-22T05:43:03;14.40;;;5.53;;
58384;SDS011;44185;47.844;8.966;2023-06-22T05:45:30;12.30;;;5.15;;
58384;SDS011;44185;47.844;8.966;2023-06-22T05:47:55;13.77;;;5.32;;
58384;SDS011;44185;47.844;8.966;2023-06-22T05:50:20;14.38;;;5.20;;
58384;SDS011;44185;47.844;8.966;2023-06-22T05:52:46;13.23;;;4.93;;
58384;SDS011;44185;47.844;8.966;2023-06-22T05:55:11;13.57;;;5.13;;
58384;SDS011;44185;47.844;8.966;2023-06-22T05:57:37;11.75;;;5.28;;
58384;SDS011;44185;47.844;8.966;2023-06-22T06:00:03;14.82;;;5.68;;
58384;SDS011;44185;47.844;8.966;2023-06-22T06:02:30;13.32;;;5.45;;
58384;SDS011;44185;47.844;8.966;2023-06-22T06:04:56;13.40;;;5.57;;
58384;SDS011;44185;47.844;8.966;2023-06-22T06:07:21;13.68;;;5.55;;
58384;SDS011;44185;47.844;8.966;2023-06-22T06:09:47;11.48;;;4.97;;
58384;SDS011;44185;47.844;8.966;2023-06-22T06:12:12;12.32;;;5.63;;
58384;SDS011;44185;47.844;8.966;2023-06-22T06:14:38;12.27;;;4.97;;
58384;SDS011;44185;47.844;8.966;2023-06-22T06:17:03;13.45;;;5.85;;
58384;SDS011;44185;47.844;8.966;2023-06-22T06:19:30;11.10;;;5.40;;
58384;SDS011;44185;47.844;8.966;2023-06-22T06:21:55;13.20;;;5.30;;
58384;SDS011;44185;47.844;8.966;2023-06-22T06:24:21;11.15;;;5.32;;
58384;SDS011;44185;47.844;8.966;2023-06-22T06:26:46;11.20;;;5.20;;
58384;SDS011;44185;47.844;8.966;2023-06-22T06:29:11;13.00;;;5.95;;
58384;SDS011;44185;47.844;8.966;2023-06-22T06:31:37;11.82;;;5.20;;
58384;SDS011;44185;47.844;8.966;2023-06-22T06:34:03;13.05;;;4.93;;
58384;SDS011;44185;47.844;8.966;2023-06-22T06:36:30;13.60;;;5.68;;
58384;SDS011;44185;47.844;8.966;2023-06-22T06:38:55;11.73;;;5.15;;
58384;SDS011;44185;47.844;8.966;2023-06-22T06:41:20;11.77;;;4.78;;
58384;SDS011;44185;47.844;8.966;2023-06-22T06:43:46;11.85;;;5.03;;
58384;SDS011;44185;47.844;8.966;2023-06-22T06:46:11;13.75;;;4.93;;
58384;SDS011;44185;47.844;8.966;2023-06-22T06:48:37;11.30;;;5.18;;
58384;SDS011;44185;47.844;8.966;2023-06-22T06:51:03;13.57;;;5.30;;
58384;SDS011;44185;47.844;8.966;2023-06-22T06:53:30;11.75;;;5.45;;
58384;SDS011;44185;47.844;8.966;2023-06-22T06:55:55;13.57;;;5.70;;
58384;SDS011;44185;47.844;8.966;2023-06-22T06:58:20;12.40;;;5.22;;
58384;SDS011;44185;47.844;8.966;2023-06-22T07:00:46;15.70;;;5.40;;
58384;SDS011;44185;47.844;8.966;2023-06-22T07:03:11;11.48;;;5.30;;
58384;SDS011;44185;47.844;8.966;2023-06-22T07:05:37;14.60;;;5.90;;
58384;SDS011;44185;47.844;8.966;2023-06-22T07:08:03;12.55;;;5.47;;
58384;SDS011;44185;47.844;8.966;2023-06-22T07:10:30;11.98;;;5.00;;
58384;SDS011;44185;47.844;8.966;2023-06-22T07:12:55;13.55;;;5.88;;
58384;SDS011;44185;47.844;8.966;2023-06-22T07:15:21;10.52;;;5.10;;
58384;SDS011;44185;47.844;8.966;2023-06-22T07:17:46;12.88;;;5.50;;
58384;SDS011;44185;47.844;8.966;2023-06-22T07:20:12;14.13;;;5.88;;
58384;SDS011;44185;47.844;8.966;2023-06-22T07:22:38;13.07;;;5.68;;
58384;SDS011;44185;47.844;8.966;2023-06-22T07:25:04;16.02;;;6.13;;
58384;SDS011;44185;47.844;8.966;2023-06-22T07:27:31;12.73;;;6.07;;
58384;SDS011;44185;47.844;8.966;2023-06-22T07:29:57;13.10;;;5.97;;
58384;SDS011;44185;47.844;8.966;2023-06-22T07:32:22;12.52;;;5.50;;
58384;SDS011;44185;47.844;8.966;2023-06-22T07:34:48;13.98;;;5.85;;
58384;SDS011;44185;47.844;8.966;2023-06-22T07:37:13;13.48;;;6.03;;
58384;SDS011;44185;47.844;8.966;2023-06-22T07:39:39;15.93;;;6.28;;
58384;SDS011;44185;47.844;8.966;2023-06-22T07:42:04;13.52;;;5.70;;
58384;SDS011;44185;47.844;8.966;2023-06-22T07:44:31;15.05;;;5.82;;
58384;SDS011;44185;47.844;8.966;2023-06-22T07:46:57;12.57;;;5.47;;
58384;SDS011;44185;47.844;8.966;2023-06-22T07:49:22;13.02;;;5.95;;
58384;SDS011;44185;47.844;8.966;2023-06-22T07:51:48;10.60;;;5.22;;
58384;SDS011;44185;47.844;8.966;2023-06-22T07:54:13;11.98;;;5.50;;
58384;SDS011;44185;47.844;8.966;2023-06-22T07:56:39;11.45;;;5.88;;
58384;SDS011;44185;47.844;8.966;2023-06-22T07:59:04;11.90;;;5.32;;
58384;SDS011;44185;47.844;8.966;2023-06-22T08:01:31;12.52;;;5.28;;
58384;SDS011;44185;47.844;8.966;2023-06-22T08:03:56;10.85;;;5.13;;
58384;SDS011;44185;47.844;8.966;2023-06-22T08:06:22;11.63;;;5.47;;
58384;SDS011;44185;47.844;8.966;2023-06-22T08:08:48;14.65;;;5.90;;
58384;SDS011;44185;47.844;8.966;2023-06-22T08:11:13;14.38;;;6.15;;
58384;SDS011;44185;47.844;8.966;2023-06-22T08:13:39;10.73;;;5.45;;
58384;SDS011;44185;47.844;8.966;2023-06-22T08:16:04;12.45;;;5.22;;
58384;SDS011;44185;47.844;8.966;2023-06-22T08:18:31;11.90;;;5.38;;
58384;SDS011;44185;47.844;8.966;2023-06-22T08:20:57;13.98;;;5.80;;
58384;SDS011;44185;47.844;8.966;2023-06-22T08:23:22;12.95;;;5.43;;
58384;SDS011;44185;47.844;8.966;2023-06-22T08:25:48;11.95;;;5.43;;
58384;SDS011;44185;47.844;8.966;2023-06-22T08:28:13;11.35;;;5.60;;
58384;SDS011;44185;47.844;8.966;2023-06-22T08:30:39;11.90;;;5.20;;
58384;SDS011;44185;47.844;8.966;2023-06-22T08:33:04;13.48;;;5.47;;
58384;SDS011;44185;47.844;8.966;2023-06-22T08:35:31;11.93;;;5.50;;
58384;SDS011;44185;47.844;8.966;2023-06-22T08:37:56;9.23;;;4.88;;
58384;SDS011;44185;47.844;8.966;2023-06-22T08:40:22;11.43;;;4.82;;
58384;SDS011;44185;47.844;8.966;2023-06-22T08:42:48;11.95;;;4.85;;
58384;SDS011;44185;47.844;8.966;2023-06-22T08:45:14;10.75;;;5.40;;
58384;SDS011;44185;47.844;8.966;2023-06-22T08:47:40;12.60;;;5.20;;
58384;SDS011;44185;47.844;8.966;2023-06-22T08:50:06;13.23;;;5.38;;
58384;SDS011;44185;47.844;8.966;2023-06-22T08:52:34;14.45;;;5.72;;
58384;SDS011;44185;47.844;8.966;2023-06-22T08:54:59;13.38;;;5.30;;
58384;SDS011;44185;47.844;8.966;2023-06-22T08:57:25;11.00;;;5.13;;
58384;SDS011;44185;47.844;8.966;2023-06-22T08:59:50;11.97;;;5.07;;
58384;SDS011;44185;47.844;8.966;2023-06-22T09:02:16;12.57;;;5.45;;
58384;SDS011;44185;47.844;8.966;2023-06-22T09:04:41;12.13;;;5.60;;
58384;SDS011;44185;47.844;8.966;2023-06-22T09:07:07;10.52;;;5.32;;
58384;SDS011;44185;47.844;8.966;2023-06-22T09:09:34;10.43;;;5.25;;
58384;SDS011;44185;47.844;8.966;2023-06-22T09:12:00;13.57;;;5.53;;
58384;SDS011;44185;47.844;8.966;2023-06-22T09:14:25;16.63;;;5.97;;
58384;SDS011;44185;47.844;8.966;2023-06-22T09:16:51;12.60;;;5.07;;
58384;SDS011;44185;47.844;8.966;2023-06-22T09:19:16;11.88;;;5.90;;
58384;SDS011;44185;47.844;8.966;2023-06-22T09:21:42;13.90;;;5.80;;
58384;SDS011;44185;47.844;8.966;2023-06-22T09:24:07;11.77;;;6.72;;
58384;SDS011;44185;47.844;8.966;2023-06-22T09:26:34;15.05;;;6.55;;
58384;SDS011;44185;47.844;8.966;2023-06-22T09:29:00;17.30;;;5.80;;
58384;SDS011;44185;47.844;8.966;2023-06-22T09:31:25;12.50;;;6.32;;
58384;SDS011;44185;47.844;8.966;2023-06-22T09:33:51;11.60;;;5.90;;
58384;SDS011;44185;47.844;8.966;2023-06-22T09:36:17;10.63;;;5.25;;
58384;SDS011;44185;47.844;8.966;2023-06-22T09:38:42;11.23;;;5.10;;
58384;SDS011;44185;47.844;8.966;2023-06-22T09:41:08;12.40;;;6.15;;
58384;SDS011;44185;47.844;8.966;2023-06-22T09:43:34;16.00;;;5.85;;
58384;SDS011;44185;47.844;8.966;2023-06-22T09:46:00;13.95;;;6.40;;
58384;SDS011;44185;47.844;8.966;2023-06-22T09:48:25;13.57;;;6.15;;
58384;SDS011;44185;47.844;8.966;2023-06-22T09:50:51;13.68;;;6.00;;
58384;SDS011;44185;47.844;8.966;2023-06-22T09:53:16;12.63;;;5.78;;
58384;SDS011;44185;47.844;8.966;2023-06-22T09:55:41;14.07;;;5.60;;
58384;SDS011;44185;47.844;8.966;2023-06-22T09:58:07;15.88;;;6.70;;
58384;SDS011;44185;47.844;8.966;2023-06-22T10:00:34;13.57;;;6.03;;
58384;SDS011;44185;47.844;8.966;2023-06-22T10:03:00;15.13;;;6.25;;
58384;SDS011;44185;47.844;8.966;2023-06-22T10:05:25;15.25;;;6.35;;
58384;SDS011;44185;47.844;8.966;2023-06-22T10:07:50;15.10;;;6.13;;
58384;SDS011;44185;47.844;8.966;2023-06-22T10:10:16;12.68;;;5.95;;
58384;SDS011;44185;47.844;8.966;2023-06-22T10:12:42;15.07;;;6.43;;
58384;SDS011;44185;47.844;8.966;2023-06-22T10:15:12;12.38;;;6.25;;
58384;SDS011;44185;47.844;8.966;2023-06-22T10:17:39;16.42;;;6.63;;
58384;SDS011;44185;47.844;8.966;2023-06-22T10:20:05;13.13;;;5.90;;
58384;SDS011;44185;47.844;8.966;2023-06-22T10:22:31;17.63;;;6.45;;
58384;SDS011;44185;47.844;8.966;2023-06-22T10:24:57;11.10;;;4.93;;
58384;SDS011;44185;47.844;8.966;2023-06-22T10:27:22;12.57;;;4.95;;
58384;SDS011;44185;47.844;8.966;2023-06-22T10:29:48;11.82;;;5.18;;
58384;SDS011;44185;47.844;8.966;2023-06-22T10:32:13;14.15;;;6.05;;
58384;SDS011;44185;47.844;8.966;2023-06-22T10:34:40;13.85;;;5.68;;
58384;SDS011;44185;47.844;8.966;2023-06-22T10:37:05;15.13;;;5.55;;
58384;SDS011;44185;47.844;8.966;2023-06-22T10:39:31;13.35;;;5.32;;
58384;SDS011;44185;47.844;8.966;2023-06-22T10:41:56;15.25;;;5.57;;
58384;SDS011;44185;47.844;8.966;2023-06-22T10:44:22;13.20;;;5.60;;
58384;SDS011;44185;47.844;8.966;2023-06-22T10:46:48;12.50;;;5.32;;
58384;SDS011;44185;47.844;8.966;2023-06-22T10:49:13;12.57;;;5.50;;
58384;SDS011;44185;47.844;8.966;2023-06-22T10:51:40;15.38;;;5.72;;
58384;SDS011;44185;47.844;8.966;2023-06-22T10:54:05;14.50;;;5.75;;
58384;SDS011;44185;47.844;8.966;2023-06-22T10:56:31;13.82;;;5.70;;
58384;SDS011;44185;47.844;8.966;2023-06-22T10:58:56;12.57;;;5.63;;
58384;SDS011;44185;47.844;8.966;2023-06-22T11:01:22;14.40;;;5.50;;
58384;SDS011;44185;47.844;8.966;2023-06-22T11:03:47;12.52;;;5.47;;
58384;SDS011;44185;47.844;8.966;2023-06-22T11:06:12;15.80;;;5.70;;
58384;SDS011;44185;47.844;8.966;2023-06-22T11:08:40;15.68;;;5.95;;
58384;SDS011;44185;47.844;8.966;2023-06-22T11:11:09;14.07;;;6.00;;
58384;SDS011;44185;47.844;8.966;2023-06-22T11:13:34;11.05;;;5.50;;
58384;SDS011;44185;47.844;8.966;2023-06-22T11:15:59;15.95;;;5.35;;
58384;SDS011;44185;47.844;8.966;2023-06-22T11:18:25;12.88;;;5.78;;
58384;SDS011;44185;47.844;8.966;2023-06-22T11:20:50;11.32;;;5.30;;
58384;SDS011;44185;47.844;8.966;2023-06-22T11:23:16;15.10;;;6.07;;
58384;SDS011;44185;47.844;8.966;2023-06-22T11:25:42;13.20;;;5.78;;
58384;SDS011;44185;47.844;8.966;2023-06-22T11:28:08;13.65;;;6.30;;
58384;SDS011;44185;47.844;8.966;2023-06-22T11:30:34;15.90;;;6.30;;
58384;SDS011;44185;47.844;8.966;2023-06-22T11:32:59;21.80;;;7.20;;
58384;SDS011;44185;47.844;8.966;2023-06-22T11:35:25;14.88;;;5.68;;
58384;SDS011;44185;47.844;8.966;2023-06-22T11:37:50;12.23;;;5.63;;
58384;SDS011;44185;47.844;8.966;2023-06-22T11:40:16;13.70;;;6.20;;
58384;SDS011;44185;47.844;8.966;2023-06-22T11:42:42;10.15;;;5.72;;
58384;SDS011;44185;47.844;8.966;2023-06-22T11:45:08;14.95;;;5.97;;
58384;SDS011;44185;47.844;8.966;2023-06-22T11:47:34;14.55;;;6.40;;
58384;SDS011;44185;47.844;8.966;2023-06-22T11:50:00;15.57;;;6.35;;
58384;SDS011;44185;47.844;8.966;2023-06-22T11:52:25;12.50;;;6.20;;
58384;SDS011;44185;47.844;8.966;2023-06-22T11:54:50;12.70;;;5.47;;
58384;SDS011;44185;47.844;8.966;2023-06-22T11:57:16;13.57;;;5.85;;
58384;SDS011;44185;47.844;8.966;2023-06-22T11:59:43;14.65;;;6.53;;
58384;SDS011;44185;47.844;8.966;2023-06-22T12:02:08;17.13;;;6.35;;
58384;SDS011;44185;47.844;8.966;2023-06-22T12:04:33;15.10;;;6.18;;
58384;SDS011;44185;47.844;8.966;2023-06-22T12:06:59;14.25;;;6.28;;
58384;SDS011;44185;47.844;8.966;2023-06-22T12:09:24;14.63;;;6.37;;
58384;SDS011;44185;47.844;8.966;2023-06-22T12:11:50;16.25;;;6.47;;
58384;SDS011;44185;47.844;8.966;2023-06-22T12:14:15;14.88;;;6.60;;
58384;SDS011;44185;47.844;8.966;2023-06-22T12:16:42;14.35;;;6.05;;
58384;SDS011;44185;47.844;8.966;2023-06-22T12:19:07;14.25;;;6.38;;
58384;SDS011;44185;47.844;8.966;2023-06-22T12:21:33;14.48;;;5.80;;
58384;SDS011;44185;47.844;8.966;2023-06-22T12:23:58;15.90;;;5.82;;
58384;SDS011;44185;47.844;8.966;2023-06-22T12:26:24;15.20;;;6.28;;
58384;SDS011;44185;47.844;8.966;2023-06-22T12:28:49;16.55;;;6.75;;
58384;SDS011;44185;47.844;8.966;2023-06-22T12:31:14;12.32;;;5.90;;
58384;SDS011;44185;47.844;8.966;2023-06-22T12:33:41;14.00;;;6.00;;
58384;SDS011;44185;47.844;8.966;2023-06-22T12:36:07;14.48;;;5.78;;
58384;SDS011;44185;47.844;8.966;2023-06-22T12:38:33;12.73;;;5.60;;
58384;SDS011;44185;47.844;8.966;2023-06-22T12:40:58;15.98;;;6.63;;
58384;SDS011;44185;47.844;8.966;2023-06-22T12:43:23;14.45;;;5.95;;
58384;SDS011;44185;47.844;8.966;2023-06-22T12:45:49;14.98;;;5.85;;
58384;SDS011;44185;47.844;8.966;2023-06-22T12:48:14;14.73;;;5.47;;
58384;SDS011;44185;47.844;8.966;2023-06-22T12:50:41;15.43;;;6.57;;
58384;SDS011;44185;47.844;8.966;2023-06-22T12:53:06;16.38;;;5.78;;
58384;SDS011;44185;47.844;8.966;2023-06-22T12:55:32;13.43;;;5.93;;
58384;SDS011;44185;47.844;8.966;2023-06-22T12:57:57;17.10;;;6.53;;
58384;SDS011;44185;47.844;8.966;2023-06-22T13:00:23;14.95;;;6.38;;
58384;SDS011;44185;47.844;8.966;2023-06-22T13:02:48;14.93;;;6.30;;
58384;SDS011;44185;47.844;8.966;2023-06-22T13:05:14;17.20;;;6.50;;
58384;SDS011;44185;47.844;8.966;2023-06-22T13:07:41;12.75;;;6.10;;
58384;SDS011;44185;47.844;8.966;2023-06-22T13:10:06;13.60;;;5.93;;
58384;SDS011;44185;47.844;8.966;2023-06-22T13:12:32;14.82;;;6.03;;
58384;SDS011;44185;47.844;8.966;2023-06-22T13:14:58;13.75;;;6.05;;
58384;SDS011;44185;47.844;8.966;2023-06-22T13:17:23;16.05;;;6.18;;
58384;SDS011;44185;47.844;8.966;2023-06-22T13:19:48;12.37;;;5.77;;
58384;SDS011;44185;47.844;8.966;2023-06-22T13:22:29;13.23;;;6.10;;
58384;SDS011;44185;47.844;8.966;2023-06-22T13:24:57;12.30;;;5.70;;
58384;SDS011;44185;47.844;8.966;2023-06-22T13:27:23;12.43;;;5.78;;
58384;SDS011;44185;47.844;8.966;2023-06-22T13:29:49;15.02;;;6.43;;
58384;SDS011;44185;47.844;8.966;2023-06-22T13:32:15;13.15;;;6.15;;
58384;SDS011;44185;47.844;8.966;2023-06-22T13:34:40;12.60;;;5.60;;
58384;SDS011;44185;47.844;8.966;2023-06-22T13:37:06;13.63;;;6.10;;
58384;SDS011;44185;47.844;8.966;2023-06-22T13:39:31;12.00;;;5.53;;
58384;SDS011;44185;47.844;8.966;2023-06-22T13:41:58;12.45;;;5.70;;
58384;SDS011;44185;47.844;8.966;2023-06-22T13:44:24;12.48;;;5.43;;
58384;SDS011;44185;47.844;8.966;2023-06-22T13:46:49;13.98;;;5.72;;
58384;SDS011;44185;47.844;8.966;2023-06-22T13:49:15;13.57;;;5.65;;
58384;SDS011;44185;47.844;8.966;2023-06-22T13:51:40;12.63;;;6.10;;
58384;SDS011;44185;47.844;8.966;2023-06-22T13:54:06;10.55;;;5.10;;
58384;SDS011;44185;47.844;8.966;2023-06-22T13:56:32;14.15;;;5.47;;
58384;SDS011;44185;47.844;8.966;2023-06-22T13:58:59;13.10;;;6.03;;
58384;SDS011;44185;47.844;8.966;2023-06-22T14:01:24;9.77;;;4.72;;
58384;SDS011;44185;47.844;8.966;2023-06-22T14:03:49;12.57;;;4.33;;
58384;SDS011;44185;47.844;8.966;2023-06-22T14:06:15;12.98;;;4.60;;
58384;SDS011;44185;47.844;8.966;2023-06-22T14:08:40;12.05;;;4.78;;
58384;SDS011;44185;47.844;8.966;2023-06-22T14:11:06;8.20;;;4.00;;
58384;SDS011;44185;47.844;8.966;2023-06-22T14:13:31;12.30;;;4.68;;
58384;SDS011;44185;47.844;8.966;2023-06-22T14:15:58;8.63;;;4.03;;
58384;SDS011;44185;47.844;8.966;2023-06-22T14:18:23;12.73;;;4.60;;
58384;SDS011;44185;47.844;8.966;2023-06-22T14:20:49;13.23;;;3.85;;
58384;SDS011;44185;47.844;8.966;2023-06-22T14:23:14;12.15;;;4.65;;
58384;SDS011;44185;47.844;8.966;2023-06-22T14:25:40;12.27;;;5.03;;